createdAt,value
2023-04-16T00:01:30.579Z,6.80
2023-04-16T00:03:59.590Z,6.79
2023-04-16T00:06:28.725Z,6.80
2023-04-16T00:08:57.545Z,6.82
2023-04-16T00:11:26.311Z,6.83
2023-04-16T00:13:55.188Z,6.83
2023-04-16T00:16:23.980Z,6.83
2023-04-16T00:18:53.293Z,6.75
2023-04-16T00:21:22.083Z,6.82
2023-04-16T00:23:50.867Z,6.83
2023-04-16T00:26:19.657Z,6.84
2023-04-16T00:28:49.035Z,6.83
2023-04-16T00:31:18.429Z,6.80
2023-04-16T00:33:47.357Z,6.74
2023-04-16T00:36:16.332Z,6.78
2023-04-16T00:38:45.413Z,6.77
2023-04-16T00:41:14.845Z,6.76
2023-04-16T00:43:43.927Z,6.75
2023-04-16T00:46:12.877Z,6.74
2023-04-16T00:48:41.890Z,6.70
2023-04-16T00:51:11.453Z,6.68
2023-04-16T00:53:40.249Z,6.69
2023-04-16T00:56:09.402Z,6.70
2023-04-16T00:58:38.219Z,6.69
2023-04-16T01:01:07.594Z,6.65
2023-04-16T01:03:38.488Z,6.64
2023-04-16T01:06:08.200Z,6.65
2023-04-16T01:08:37.298Z,6.66
2023-04-16T01:11:06.473Z,6.66
2023-04-16T01:13:39.390Z,6.63
2023-04-16T01:16:09.040Z,6.59
2023-04-16T01:18:37.966Z,6.56
2023-04-16T01:21:07.582Z,6.55
2023-04-16T01:23:36.540Z,6.50
2023-04-16T01:26:05.688Z,6.54
2023-04-16T01:28:35.248Z,6.54
2023-04-16T01:31:04.129Z,6.52
2023-04-16T01:33:47.721Z,6.49
2023-04-16T01:36:16.580Z,6.48
2023-04-16T01:38:45.565Z,6.50
2023-04-16T01:41:14.572Z,6.51
2023-04-16T01:43:43.573Z,6.51
2023-04-16T01:46:16.800Z,6.50
2023-04-16T01:48:48.115Z,6.50
2023-04-16T01:51:16.966Z,6.50
2023-04-16T01:53:47.452Z,6.51
2023-04-16T01:56:16.399Z,6.53
2023-04-16T01:58:46.110Z,6.50
2023-04-16T02:01:15.434Z,6.55
2023-04-16T02:03:44.689Z,6.55
2023-04-16T02:06:13.881Z,6.51
2023-04-16T02:08:43.548Z,6.55
2023-04-16T02:11:12.829Z,6.54
2023-04-16T02:13:41.905Z,6.55
2023-04-16T02:16:11.060Z,6.59
2023-04-16T02:19:09.069Z,6.61
2023-04-16T02:21:39.357Z,6.61
2023-04-16T02:24:08.318Z,6.60
2023-04-16T02:26:37.222Z,6.60
2023-04-16T02:29:09.462Z,6.58
2023-04-16T02:31:43.297Z,6.59
2023-04-16T02:34:12.398Z,6.60
2023-04-16T02:36:41.212Z,6.60
2023-04-16T02:39:10.118Z,6.59
2023-04-16T02:41:41.363Z,6.57
2023-04-16T02:44:10.263Z,6.54
2023-04-16T02:46:39.056Z,6.48
2023-04-16T02:49:08.314Z,6.42
2023-04-16T02:51:37.255Z,6.39
2023-04-16T02:54:06.000Z,6.35
2023-04-16T02:56:34.990Z,6.31
2023-04-16T02:59:04.125Z,6.26
2023-04-16T03:01:33.183Z,6.22
2023-04-16T03:04:02.184Z,6.19
2023-04-16T03:06:31.401Z,6.17
2023-04-16T03:09:00.302Z,6.18
2023-04-16T03:11:29.601Z,6.21
2023-04-16T03:13:59.115Z,6.26
2023-04-16T03:16:27.887Z,6.30
2023-04-16T03:18:56.685Z,6.34
2023-04-16T03:21:27.690Z,6.35
2023-04-16T03:23:57.249Z,6.38
2023-04-16T03:26:26.020Z,6.39
2023-04-16T03:28:54.982Z,6.39
2023-04-16T03:31:26.036Z,6.38
2023-04-16T03:33:55.294Z,6.36
2023-04-16T03:36:25.260Z,6.41
2023-04-16T03:38:54.112Z,6.44
2023-04-16T03:41:22.990Z,6.48
2023-04-16T03:43:52.020Z,6.51
2023-04-16T03:46:20.904Z,6.53
2023-04-16T03:48:50.155Z,6.53
2023-04-16T03:51:19.464Z,6.53
2023-04-16T03:53:48.307Z,6.53
2023-04-16T03:56:17.056Z,6.54
2023-04-16T03:58:46.152Z,6.59
2023-04-16T04:01:15.301Z,6.60
2023-04-16T04:03:44.494Z,6.59
2023-04-16T04:06:14.221Z,6.60
2023-04-16T04:08:43.665Z,6.59
2023-04-16T04:11:12.694Z,6.58
2023-04-16T04:13:42.654Z,6.57
2023-04-16T04:16:11.427Z,6.56
2023-04-16T04:18:40.226Z,6.54
2023-04-16T04:21:09.664Z,6.51
2023-04-16T04:23:38.768Z,6.48
2023-04-16T04:26:07.842Z,6.45
2023-04-16T04:28:36.798Z,6.42
2023-04-16T04:31:06.339Z,6.39
2023-04-16T04:33:35.193Z,6.36
2023-04-16T04:36:04.147Z,6.34
2023-04-16T04:38:33.942Z,6.33
2023-04-16T04:41:02.809Z,6.34
2023-04-16T04:43:34.431Z,6.34
2023-04-16T04:46:03.536Z,6.36
2023-04-16T04:48:32.777Z,6.37
2023-04-16T04:51:03.530Z,6.42
2023-04-16T04:53:33.636Z,6.47
2023-04-16T04:56:12.357Z,6.52
2023-04-16T04:58:42.458Z,6.56
2023-04-16T05:01:11.524Z,6.58
2023-04-16T05:03:40.460Z,6.59
2023-04-16T05:06:09.319Z,6.61
2023-04-16T05:08:38.139Z,6.64
2023-04-16T05:11:07.020Z,6.70
2023-04-16T05:13:35.848Z,6.77
2023-04-16T05:16:05.347Z,6.83
2023-04-16T05:18:34.226Z,6.85
2023-04-16T05:21:03.092Z,6.90
2023-04-16T05:23:32.046Z,6.92
2023-04-16T05:26:00.977Z,6.92
2023-04-16T05:28:30.064Z,6.92
2023-04-16T05:30:59.828Z,6.92
2023-04-16T05:33:28.860Z,6.91
2023-04-16T05:35:57.743Z,6.91
2023-04-16T05:38:26.739Z,6.90
2023-04-16T05:40:56.123Z,6.88
2023-04-16T05:43:25.451Z,6.85
2023-04-16T05:45:54.210Z,6.84
2023-04-16T05:48:23.040Z,6.85
2023-04-16T05:50:51.996Z,6.86
2023-04-16T05:53:20.900Z,6.86
2023-04-16T05:55:49.684Z,6.86
2023-04-16T05:58:18.776Z,6.86
2023-04-16T06:00:47.848Z,6.87
2023-04-16T06:03:16.831Z,6.88
2023-04-16T06:05:46.938Z,6.90
2023-04-16T06:08:15.776Z,6.93
2023-04-16T06:10:44.929Z,6.96
2023-04-16T06:13:16.115Z,7.00
2023-04-16T06:15:44.927Z,7.04
2023-04-16T06:18:13.833Z,7.06
2023-04-16T06:20:42.718Z,7.06
2023-04-16T06:23:12.036Z,7.05
2023-04-16T06:25:40.892Z,7.04
2023-04-16T06:28:09.923Z,7.02
2023-04-16T06:30:38.704Z,7.01
2023-04-16T06:33:07.459Z,7.00
2023-04-16T06:35:36.379Z,6.98
2023-04-16T06:38:05.151Z,6.96
2023-04-16T06:40:33.932Z,6.92
2023-04-16T06:43:02.713Z,6.94
2023-04-16T06:45:31.670Z,6.96
2023-04-16T06:48:01.403Z,7.00
2023-04-16T06:50:30.420Z,7.02
2023-04-16T06:52:59.145Z,7.04
2023-04-16T06:55:27.913Z,7.04
2023-04-16T06:57:56.771Z,7.04
2023-04-16T07:00:25.562Z,7.03
2023-04-16T07:02:56.993Z,7.07
2023-04-16T07:05:27.241Z,7.12
2023-04-16T07:07:57.355Z,7.18
2023-04-16T07:10:26.198Z,7.24
2023-04-16T07:12:55.200Z,7.29
2023-04-16T07:15:24.070Z,7.33
2023-04-16T07:17:53.001Z,7.38
2023-04-16T07:20:22.173Z,7.42
2023-04-16T07:22:50.954Z,7.46
2023-04-16T07:25:19.735Z,7.55
2023-04-16T07:27:48.426Z,7.61
2023-04-16T07:30:17.285Z,7.65
2023-04-16T07:32:46.301Z,7.66
2023-04-16T07:35:15.262Z,7.69
2023-04-16T07:37:44.186Z,7.71
2023-04-16T07:40:13.687Z,7.72
2023-04-16T07:42:42.569Z,7.74
2023-04-16T07:45:13.939Z,7.79
2023-04-16T07:47:42.902Z,7.83
2023-04-16T07:50:12.435Z,7.85
2023-04-16T07:52:42.536Z,7.88
2023-04-16T07:55:11.400Z,7.92
2023-04-16T07:57:41.031Z,7.91
2023-04-16T08:00:25.769Z,7.95
2023-04-16T08:03:33.106Z,8.03
2023-04-16T08:06:08.493Z,8.12
2023-04-16T08:08:52.274Z,8.21
2023-04-16T08:11:52.316Z,8.26
2023-04-16T08:17:23.949Z,8.32
2023-04-16T08:20:31.774Z,8.41
2023-04-16T08:23:09.730Z,8.53
2023-04-16T08:25:38.474Z,8.64
2023-04-16T08:28:07.892Z,8.74
2023-04-16T08:30:42.176Z,8.87
2023-04-16T08:33:15.818Z,8.85
2023-04-16T08:35:49.141Z,9.09
2023-04-16T08:38:32.155Z,9.23
2023-04-16T08:41:01.476Z,9.41
2023-04-16T08:43:30.347Z,9.58
2023-04-16T08:45:59.193Z,9.69
2023-04-16T08:48:27.957Z,9.82
2023-04-16T08:50:56.818Z,9.89
2023-04-16T08:53:27.291Z,9.91
2023-04-16T08:55:56.320Z,9.92
2023-04-16T08:58:25.089Z,9.91
2023-04-16T09:00:53.966Z,9.90
2023-04-16T09:03:23.064Z,9.92
2023-04-16T09:05:52.375Z,9.94
2023-04-16T09:08:21.219Z,9.94
2023-04-16T09:10:50.327Z,9.92
2023-04-16T09:13:20.467Z,9.90
2023-04-16T09:15:49.167Z,9.87
2023-04-16T09:18:18.124Z,9.83
2023-04-16T09:20:46.936Z,9.80
2023-04-16T09:23:15.631Z,9.82
2023-04-16T09:25:44.468Z,9.86
2023-04-16T09:28:13.217Z,9.90
2023-04-16T09:30:42.579Z,9.93
2023-04-16T09:33:16.520Z,9.98
2023-04-16T09:35:49.051Z,10.11
2023-04-16T09:38:18.017Z,10.25
2023-04-16T09:40:47.664Z,10.41
2023-04-16T09:43:16.911Z,10.55
2023-04-16T09:45:50.813Z,10.66
2023-04-16T09:48:22.734Z,10.76
2023-04-16T09:50:52.551Z,10.83
2023-04-16T09:53:26.416Z,10.92
2023-04-16T09:55:55.322Z,11.04
2023-04-16T09:59:36.443Z,11.18
2023-04-16T10:02:15.546Z,11.43
2023-04-16T10:04:48.880Z,11.54
2023-04-16T10:07:17.724Z,11.69
2023-04-16T10:09:48.484Z,11.85
2023-04-16T10:12:17.837Z,11.95
2023-04-16T10:14:48.354Z,11.98
2023-04-16T10:17:18.872Z,11.91
2023-04-16T10:19:48.024Z,11.86
2023-04-16T10:22:17.057Z,11.78
2023-04-16T10:24:46.191Z,11.67
2023-04-16T10:27:17.691Z,11.55
2023-04-16T10:29:47.006Z,11.37
2023-04-16T10:32:16.094Z,11.17
2023-04-16T10:34:44.870Z,11.00
2023-04-16T10:37:13.611Z,10.85
2023-04-16T10:39:42.442Z,10.72
2023-04-16T10:42:12.011Z,10.60
2023-04-16T10:44:43.419Z,10.52
2023-04-16T10:47:15.761Z,10.46
2023-04-16T10:49:44.537Z,10.37
2023-04-16T10:52:14.965Z,10.33
2023-04-16T10:54:43.997Z,10.25
2023-04-16T10:57:17.674Z,10.19
2023-04-16T10:59:46.558Z,10.16
2023-04-16T11:02:16.019Z,10.14
2023-04-16T11:04:45.825Z,10.14
2023-04-16T11:07:19.665Z,10.18
2023-04-16T11:09:51.767Z,10.24
2023-04-16T11:12:21.663Z,10.28
2023-04-16T11:14:51.666Z,10.27
2023-04-16T11:17:20.687Z,10.29
2023-04-16T11:19:50.241Z,10.34
2023-04-16T11:22:22.428Z,10.37
2023-04-16T11:24:54.477Z,10.40
2023-04-16T11:27:23.348Z,10.39
2023-04-16T11:29:59.136Z,10.42
2023-04-16T11:32:27.983Z,10.48
2023-04-16T11:34:57.184Z,10.55
2023-04-16T11:37:34.273Z,10.62
2023-04-16T11:40:04.529Z,10.65
2023-04-16T11:42:33.492Z,10.68
2023-04-16T11:45:02.319Z,10.70
2023-04-16T11:47:31.635Z,10.71
2023-04-16T11:50:04.600Z,10.72
2023-04-16T11:52:33.996Z,10.75
2023-04-16T11:55:03.448Z,10.81
2023-04-16T11:57:32.580Z,10.83
2023-04-16T12:00:04.000Z,10.84
2023-04-16T12:02:46.079Z,10.83
2023-04-16T12:05:31.943Z,10.82
2023-04-16T12:08:01.381Z,10.79
2023-04-16T12:10:31.191Z,10.75
2023-04-16T12:13:12.560Z,10.75
2023-04-16T12:15:48.358Z,10.71
2023-04-16T12:18:17.838Z,10.68
2023-04-16T12:20:47.431Z,10.63
2023-04-16T12:23:24.517Z,10.61
2023-04-16T12:25:53.337Z,10.61
2023-04-16T12:28:32.063Z,10.65
2023-04-16T12:31:01.087Z,10.73
2023-04-16T12:33:30.094Z,10.83
2023-04-16T12:35:58.890Z,10.89
2023-04-16T12:38:28.290Z,10.96
2023-04-16T12:40:58.220Z,11.10
2023-04-16T12:43:27.472Z,11.25
2023-04-16T12:45:56.349Z,11.38
2023-04-16T12:48:25.650Z,11.49
2023-04-16T12:50:55.800Z,11.53
2023-04-16T12:53:24.639Z,11.55
2023-04-16T12:55:53.420Z,11.57
2023-04-16T12:58:22.254Z,11.57
2023-04-16T13:00:51.062Z,11.56
2023-04-16T13:03:21.962Z,11.54
2023-04-16T13:05:51.072Z,11.55
2023-04-16T13:08:19.844Z,11.57
2023-04-16T13:10:48.610Z,11.60
2023-04-16T13:13:17.406Z,11.68
2023-04-16T13:15:46.232Z,11.71
2023-04-16T13:18:15.079Z,11.68
2023-04-16T13:20:44.244Z,11.65
2023-04-16T13:23:13.811Z,11.65
2023-04-16T13:25:42.647Z,11.66
2023-04-16T13:28:12.066Z,11.65
2023-04-16T13:30:40.899Z,11.61
2023-04-16T13:33:10.038Z,11.54
2023-04-16T13:35:38.874Z,11.43
2023-04-16T13:38:07.782Z,11.52
2023-04-16T13:40:36.568Z,11.55
2023-04-16T13:43:07.593Z,11.59
2023-04-16T13:45:38.725Z,11.64
2023-04-16T13:48:08.014Z,11.68
2023-04-16T13:50:36.940Z,11.76
2023-04-16T13:53:05.803Z,11.79
2023-04-16T13:55:34.915Z,11.86
2023-04-16T13:58:03.801Z,11.93
2023-04-16T14:00:32.769Z,12.09
2023-04-16T14:03:01.751Z,12.34
2023-04-16T14:05:30.886Z,12.75
2023-04-16T14:07:59.605Z,13.23
2023-04-16T14:10:28.604Z,13.59
2023-04-16T14:12:57.632Z,13.62
2023-04-16T14:15:27.473Z,13.58
2023-04-16T14:17:56.529Z,13.51
2023-04-16T14:20:25.888Z,13.48
2023-04-16T14:22:54.822Z,13.49
2023-04-16T14:25:24.245Z,13.42
2023-04-16T14:27:53.261Z,13.37
2023-04-16T14:30:22.255Z,13.31
2023-04-16T14:32:51.241Z,13.31
2023-04-16T14:35:20.349Z,13.38
2023-04-16T14:37:49.237Z,13.47
2023-04-16T14:40:18.142Z,13.61
2023-04-16T14:42:46.899Z,13.69
2023-04-16T14:45:15.902Z,13.66
2023-04-16T14:47:47.842Z,13.50
2023-04-16T14:50:16.839Z,13.39
2023-04-16T14:52:46.977Z,13.40
2023-04-16T14:55:15.889Z,13.36
2023-04-16T14:57:45.068Z,13.35
2023-04-16T15:00:17.353Z,13.39
2023-04-16T15:02:48.548Z,13.40
2023-04-16T15:05:17.574Z,13.38
2023-04-16T15:07:46.414Z,13.34
2023-04-16T15:10:15.597Z,13.28
2023-04-16T15:12:44.426Z,13.21
2023-04-16T15:15:13.526Z,13.06
2023-04-16T15:17:43.861Z,12.84
2023-04-16T15:20:13.586Z,12.60
2023-04-16T15:22:42.639Z,12.35
2023-04-16T15:25:12.172Z,12.17
2023-04-16T15:27:40.998Z,12.09
2023-04-16T15:30:11.427Z,12.02
2023-04-16T15:32:40.743Z,11.91
2023-04-16T15:35:12.772Z,11.84
2023-04-16T15:37:42.528Z,11.80
2023-04-16T15:40:12.696Z,11.74
2023-04-16T15:42:43.147Z,11.66
2023-04-16T15:45:14.260Z,11.57
2023-04-16T15:47:45.204Z,11.52
2023-04-16T15:50:14.304Z,11.47
2023-04-16T15:52:43.137Z,11.47
2023-04-16T15:55:12.896Z,11.40
2023-04-16T15:57:42.076Z,11.37
2023-04-16T16:00:17.265Z,11.35
2023-04-16T16:02:47.485Z,11.36
2023-04-16T16:05:16.825Z,11.35
2023-04-16T16:07:49.523Z,11.35
2023-04-16T16:10:20.583Z,11.33
2023-04-16T16:12:49.487Z,11.27
2023-04-16T16:15:18.775Z,11.21
2023-04-16T16:17:50.796Z,11.15
2023-04-16T16:20:19.698Z,11.08
2023-04-16T16:22:55.682Z,11.02
2023-04-16T16:25:25.599Z,10.96
2023-04-16T16:27:55.061Z,10.90
2023-04-16T16:30:27.433Z,10.86
2023-04-16T16:32:57.663Z,10.83
2023-04-16T16:35:27.121Z,10.82
2023-04-16T16:37:57.300Z,10.77
2023-04-16T16:40:26.464Z,10.75
2023-04-16T16:42:55.551Z,10.75
2023-04-16T16:45:26.108Z,10.73
2023-04-16T16:47:55.889Z,10.69
2023-04-16T16:50:27.199Z,10.64
2023-04-16T16:52:59.368Z,10.55
2023-04-16T16:55:35.854Z,10.54
2023-04-16T16:58:06.700Z,10.47
2023-04-16T17:00:36.380Z,10.39
2023-04-16T17:03:06.484Z,10.32
2023-04-16T17:05:35.434Z,10.27
2023-04-16T17:08:07.514Z,10.25
2023-04-16T17:10:37.539Z,10.23
2023-04-16T17:13:06.535Z,10.23
2023-04-16T17:15:35.648Z,10.21
2023-04-16T17:18:07.400Z,10.19
2023-04-16T17:20:36.437Z,10.16
2023-04-16T17:23:05.364Z,10.16
2023-04-16T17:25:34.093Z,10.15
2023-04-16T17:28:03.090Z,10.13
2023-04-16T17:30:32.705Z,10.10
2023-04-16T17:33:04.254Z,10.05
2023-04-16T17:35:33.577Z,10.02
2023-04-16T17:38:05.632Z,9.97
2023-04-16T17:40:34.366Z,9.91
2023-04-16T17:43:03.345Z,9.87
2023-04-16T17:45:33.644Z,9.81
2023-04-16T17:48:06.548Z,9.75
2023-04-16T17:50:38.245Z,9.68
2023-04-16T17:53:08.399Z,9.63
2023-04-16T17:55:37.211Z,9.58
2023-04-16T17:58:08.415Z,9.52
2023-04-16T18:00:37.367Z,9.48
2023-04-16T18:03:10.149Z,9.42
2023-04-16T18:05:38.948Z,9.39
2023-04-16T18:08:08.014Z,9.35
2023-04-16T18:10:39.524Z,9.32
2023-04-16T18:13:08.384Z,9.31
2023-04-16T18:15:38.226Z,9.31
2023-04-16T18:18:07.217Z,9.29
2023-04-16T18:20:36.118Z,9.28
2023-04-16T18:23:04.905Z,9.25
2023-04-16T18:25:35.208Z,9.20
2023-04-16T18:28:06.119Z,9.18
2023-04-16T18:30:36.205Z,9.14
2023-04-16T18:35:37.143Z,9.05
2023-04-16T18:38:06.000Z,9.04
2023-04-16T18:40:38.653Z,9.00
2023-04-16T18:43:07.533Z,8.98
2023-04-16T18:45:37.095Z,9.00
2023-04-16T18:48:06.226Z,8.99
2023-04-16T18:50:35.204Z,8.98
2023-04-16T18:53:03.975Z,8.96
2023-04-16T18:55:32.924Z,8.93
2023-04-16T18:58:04.114Z,8.90
2023-04-16T19:00:36.917Z,8.88
2023-04-16T19:03:07.411Z,8.88
2023-04-16T19:05:36.452Z,8.88
2023-04-16T19:08:05.387Z,8.87
2023-04-16T19:10:34.307Z,8.86
2023-04-16T19:13:04.021Z,8.83
2023-04-16T19:15:34.873Z,8.81
2023-04-16T19:18:06.015Z,8.77
2023-04-16T19:20:36.362Z,8.74
2023-04-16T19:23:05.927Z,8.72
2023-04-16T19:25:34.782Z,8.73
2023-04-16T19:28:04.558Z,8.74
2023-04-16T19:30:33.439Z,8.76
2023-04-16T19:33:02.408Z,8.75
2023-04-16T19:35:32.013Z,8.74
2023-04-16T19:38:03.140Z,8.71
2023-04-16T19:40:35.521Z,8.69
2023-04-16T19:43:04.884Z,8.66
2023-04-16T19:45:35.237Z,8.63
2023-04-16T19:48:04.212Z,8.60
2023-04-16T19:50:34.115Z,8.58
2023-04-16T19:53:05.712Z,8.54
2023-04-16T19:55:35.039Z,8.48
2023-04-16T19:58:07.094Z,8.48
2023-04-16T20:00:37.330Z,8.47
2023-04-16T20:03:06.249Z,8.44
2023-04-16T20:05:35.317Z,8.47
2023-04-16T20:08:17.069Z,8.44
2023-04-16T20:11:01.885Z,8.44
2023-04-16T20:13:31.411Z,8.41
2023-04-16T20:16:01.164Z,8.39
2023-04-16T20:18:32.252Z,8.37
2023-04-16T20:21:05.992Z,8.35
2023-04-16T20:23:35.148Z,8.40
2023-04-16T20:26:04.425Z,8.41
2023-04-16T20:28:33.419Z,8.41
2023-04-16T20:31:14.490Z,8.39
2023-04-16T20:33:43.565Z,8.37
2023-04-16T20:36:12.698Z,8.36
2023-04-16T20:38:43.604Z,8.34
2023-04-16T20:41:20.244Z,8.31
2023-04-16T20:43:52.606Z,8.29
2023-04-16T20:46:24.525Z,8.26
2023-04-16T20:48:53.386Z,8.25
2023-04-16T20:51:22.529Z,8.24
2023-04-16T20:53:52.232Z,8.23
2023-04-16T20:56:21.843Z,8.22
2023-04-16T20:58:53.164Z,8.18
2023-04-16T21:01:22.103Z,8.15
2023-04-16T21:03:51.521Z,8.10
2023-04-16T21:06:22.596Z,8.07
2023-04-16T21:08:51.380Z,8.03
2023-04-16T21:11:20.745Z,8.00
2023-04-16T21:13:49.600Z,7.99
2023-04-16T21:16:18.445Z,7.98
2023-04-16T21:18:47.393Z,7.96
2023-04-16T21:21:16.520Z,7.94
2023-04-16T21:23:45.322Z,7.92
2023-04-16T21:26:14.269Z,7.88
2023-04-16T21:28:43.087Z,7.81
2023-04-16T21:31:12.244Z,7.86
2023-04-16T21:33:41.315Z,7.85
2023-04-16T21:36:11.628Z,7.85
2023-04-16T21:38:40.697Z,7.84
2023-04-16T21:41:09.478Z,7.82
2023-04-16T21:43:38.653Z,7.81
2023-04-16T21:46:07.527Z,7.79
2023-04-16T21:48:36.247Z,7.81
2023-04-16T21:51:07.983Z,7.83
2023-04-16T21:53:38.561Z,7.84
2023-04-16T21:56:08.407Z,7.84
2023-04-16T21:58:37.302Z,7.83
2023-04-16T22:01:09.596Z,7.80
2023-04-16T22:03:40.476Z,7.80
2023-04-16T22:06:10.583Z,7.81
2023-04-16T22:08:39.767Z,7.76
2023-04-16T22:11:08.636Z,7.74
2023-04-16T22:13:37.655Z,7.69
2023-04-16T22:16:08.834Z,7.67
2023-04-16T22:18:41.056Z,7.64
2023-04-16T22:21:10.373Z,7.61
2023-04-16T22:23:54.371Z,7.60
2023-04-16T22:26:23.532Z,7.55
2023-04-16T22:28:52.960Z,7.51
2023-04-16T22:31:22.023Z,7.48
2023-04-16T22:33:50.728Z,7.47
2023-04-16T22:36:20.525Z,7.43
2023-04-16T22:38:49.546Z,7.44
2023-04-16T22:41:18.337Z,7.41
2023-04-16T22:43:47.036Z,7.40
2023-04-16T22:46:15.778Z,7.37
2023-04-16T22:48:44.608Z,7.37
2023-04-16T22:51:13.330Z,7.38
2023-04-16T22:53:42.493Z,7.39
2023-04-16T22:56:11.739Z,7.39
2023-04-16T22:58:40.654Z,7.35
2023-04-16T23:01:09.420Z,7.33
2023-04-16T23:03:38.434Z,7.30
2023-04-16T23:06:08.493Z,7.26
2023-04-16T23:08:37.264Z,7.22
2023-04-16T23:11:06.331Z,7.22
2023-04-16T23:13:35.126Z,7.22
2023-04-16T23:16:03.966Z,7.23
2023-04-16T23:18:32.843Z,7.25
2023-04-16T23:21:01.628Z,7.26
2023-04-16T23:23:30.370Z,7.25
2023-04-16T23:26:00.940Z,7.23
2023-04-16T23:28:29.701Z,7.17
2023-04-16T23:30:58.434Z,7.15
2023-04-16T23:33:27.306Z,7.11
2023-04-16T23:35:56.156Z,7.07
2023-04-16T23:38:25.053Z,7.05
2023-04-16T23:40:53.813Z,7.03
2023-04-16T23:43:22.534Z,7.03
2023-04-16T23:45:51.298Z,7.00
2023-04-16T23:48:20.054Z,7.02
2023-04-16T23:50:48.803Z,7.02
2023-04-16T23:53:17.596Z,7.02
2023-04-16T23:55:46.407Z,7.00
2023-04-16T23:58:15.163Z,6.99
